createdAt,value
2022-11-29T00:01:25.932Z,12.80
2022-11-29T00:03:53.144Z,12.77
2022-11-29T00:06:21.723Z,14.07
2022-11-29T00:08:48.928Z,13.30
2022-11-29T00:11:38.142Z,13.17
2022-11-29T00:14:06.082Z,12.97
2022-11-29T00:16:32.669Z,12.73
2022-11-29T00:18:59.394Z,12.57
2022-11-29T00:21:25.746Z,13.50
2022-11-29T00:23:52.136Z,12.90
2022-11-29T00:26:19.036Z,13.00
2022-11-29T00:28:45.339Z,13.17
2022-11-29T00:31:24.627Z,13.43
2022-11-29T00:33:51.758Z,13.30
2022-11-29T00:36:18.991Z,14.10
2022-11-29T00:38:45.791Z,12.67
2022-11-29T00:41:12.289Z,13.27
2022-11-29T00:43:38.900Z,14.10
2022-11-29T00:46:06.231Z,13.63
2022-11-29T00:48:33.041Z,13.60
2022-11-29T00:50:59.537Z,13.60
2022-11-29T00:53:26.078Z,13.23
2022-11-29T00:55:53.107Z,14.13
2022-11-29T00:58:21.153Z,13.27
2022-11-29T01:00:48.357Z,12.97
2022-11-29T01:03:15.893Z,13.40
2022-11-29T01:05:42.913Z,13.67
2022-11-29T01:08:10.273Z,14.20
2022-11-29T01:10:36.674Z,13.80
2022-11-29T01:13:03.114Z,14.23
2022-11-29T01:15:30.560Z,13.47
2022-11-29T01:17:57.028Z,14.57
2022-11-29T01:20:23.549Z,13.57
2022-11-29T01:22:50.091Z,13.90
2022-11-29T01:25:16.801Z,14.63
2022-11-29T01:27:43.230Z,15.20
2022-11-29T01:30:10.918Z,14.57
2022-11-29T01:32:37.575Z,14.10
2022-11-29T01:35:05.508Z,14.13
2022-11-29T01:37:32.302Z,13.60
2022-11-29T01:39:58.709Z,13.90
2022-11-29T01:42:25.189Z,13.37
2022-11-29T01:45:13.481Z,14.70
2022-11-29T01:47:44.748Z,14.23
2022-11-29T01:50:11.455Z,14.13
2022-11-29T01:52:38.197Z,13.77
2022-11-29T01:55:07.642Z,13.93
2022-11-29T01:57:36.624Z,13.97
2022-11-29T02:00:08.776Z,13.97
2022-11-29T02:02:57.271Z,14.10
2022-11-29T02:05:25.269Z,13.47
2022-11-29T02:07:55.772Z,13.50
2022-11-29T02:10:32.689Z,14.40
2022-11-29T02:13:21.502Z,14.53
2022-11-29T02:16:10.676Z,14.53
2022-11-29T02:18:44.825Z,13.97
2022-11-29T02:21:19.831Z,14.70
2022-11-29T02:24:16.851Z,14.50
2022-11-29T02:26:55.260Z,13.60
2022-11-29T02:29:29.605Z,14.80
2022-11-29T02:32:42.002Z,14.30
2022-11-29T02:35:24.738Z,14.67
2022-11-29T02:38:22.056Z,14.53
2022-11-29T02:40:57.429Z,15.97
2022-11-29T02:43:39.775Z,16.43
2022-11-29T02:46:33.920Z,15.83
2022-11-29T02:49:33.371Z,14.47
2022-11-29T02:52:16.978Z,14.30
2022-11-29T02:54:56.730Z,14.30
2022-11-29T02:57:33.109Z,14.13
2022-11-29T03:00:05.714Z,14.87
2022-11-29T03:02:35.046Z,14.73
2022-11-29T03:05:07.155Z,15.13
2022-11-29T03:07:55.697Z,15.23
2022-11-29T03:10:50.314Z,15.40
2022-11-29T03:13:24.907Z,15.60
2022-11-29T03:16:06.103Z,14.77
2022-11-29T03:18:35.457Z,15.20
2022-11-29T03:21:32.670Z,14.27
2022-11-29T03:24:04.765Z,13.67
2022-11-29T03:26:37.238Z,14.00
2022-11-29T03:29:11.854Z,13.23
2022-11-29T03:31:56.779Z,14.10
2022-11-29T03:34:44.821Z,14.00
2022-11-29T03:37:23.170Z,14.33
2022-11-29T03:40:03.286Z,14.60
2022-11-29T03:42:51.084Z,14.73
2022-11-29T03:45:25.031Z,14.80
2022-11-29T03:47:57.859Z,15.13
2022-11-29T03:50:32.417Z,15.10
2022-11-29T03:53:19.659Z,14.37
2022-11-29T03:56:00.463Z,14.00
2022-11-29T03:58:49.264Z,15.27
2022-11-29T04:01:28.398Z,14.57
2022-11-29T04:04:19.953Z,14.90
2022-11-29T04:07:04.451Z,15.33
2022-11-29T04:10:16.113Z,15.37
2022-11-29T04:13:29.950Z,15.20
2022-11-29T04:16:26.793Z,14.53
2022-11-29T04:19:31.069Z,15.17
2022-11-29T04:22:18.835Z,16.27
2022-11-29T04:24:59.697Z,16.73
2022-11-29T04:27:38.269Z,16.90
2022-11-29T04:30:19.600Z,17.27
2022-11-29T04:33:13.710Z,19.53
2022-11-29T04:36:19.823Z,21.97
2022-11-29T04:38:49.234Z,22.63
2022-11-29T04:41:51.351Z,25.07
2022-11-29T04:44:50.713Z,25.43
2022-11-29T04:47:38.946Z,25.53
2022-11-29T04:50:15.472Z,27.20
2022-11-29T04:53:00.109Z,27.90
2022-11-29T04:55:45.683Z,27.87
2022-11-29T04:58:35.086Z,27.13
2022-11-29T05:01:15.133Z,28.97
2022-11-29T05:03:56.689Z,27.43
2022-11-29T05:06:48.771Z,27.90
2022-11-29T05:09:27.330Z,28.20
2022-11-29T05:12:05.832Z,28.37
2022-11-29T05:14:45.467Z,28.70
2022-11-29T05:17:31.075Z,28.20
2022-11-29T05:20:04.003Z,29.37
2022-11-29T05:23:05.926Z,30.93
2022-11-29T05:25:46.627Z,29.50
2022-11-29T05:28:24.716Z,31.93
2022-11-29T05:31:29.410Z,30.80
2022-11-29T05:34:34.561Z,29.70
2022-11-29T05:37:06.201Z,29.23
2022-11-29T05:40:07.607Z,31.87
2022-11-29T05:43:01.915Z,32.07
2022-11-29T05:45:48.523Z,30.83
2022-11-29T05:48:45.040Z,32.83
2022-11-29T05:51:29.760Z,31.53
2022-11-29T05:54:18.206Z,35.37
2022-11-29T05:56:48.464Z,33.60
2022-11-29T05:59:27.135Z,33.87
2022-11-29T06:02:22.787Z,35.17
2022-11-29T06:05:03.954Z,35.87
2022-11-29T06:07:54.891Z,34.20
2022-11-29T06:10:26.148Z,36.57
2022-11-29T06:13:18.198Z,37.77
2022-11-29T06:16:02.780Z,36.20
2022-11-29T06:18:41.322Z,31.83
2022-11-29T06:21:40.714Z,31.50
2022-11-29T06:24:25.982Z,34.03
2022-11-29T06:27:15.863Z,35.63
2022-11-29T06:29:55.525Z,35.57
2022-11-29T06:32:42.046Z,34.27
2022-11-29T06:35:46.777Z,35.23
2022-11-29T06:38:20.246Z,37.40
2022-11-29T06:40:47.055Z,35.70
2022-11-29T06:43:13.778Z,35.80
2022-11-29T06:45:49.054Z,35.47
2022-11-29T06:48:27.555Z,36.37
2022-11-29T06:51:03.223Z,35.23
2022-11-29T06:53:39.900Z,38.07
2022-11-29T06:56:29.554Z,38.80
2022-11-29T06:59:29.878Z,36.93
2022-11-29T07:02:27.405Z,41.17
2022-11-29T07:05:23.541Z,39.50
2022-11-29T07:07:54.299Z,44.03
2022-11-29T07:10:21.512Z,43.27
2022-11-29T07:12:50.449Z,44.07
2022-11-29T07:15:19.409Z,44.43
2022-11-29T07:18:02.807Z,44.43
2022-11-29T07:20:47.302Z,46.50
2022-11-29T07:23:34.236Z,47.93
2022-11-29T07:26:23.419Z,48.23
2022-11-29T07:29:24.605Z,45.73
2022-11-29T07:31:54.103Z,45.17
2022-11-29T07:34:42.972Z,45.27
2022-11-29T07:37:33.837Z,42.40
2022-11-29T07:40:34.417Z,45.87
2022-11-29T07:43:37.509Z,43.10
2022-11-29T07:46:03.957Z,43.67
2022-11-29T07:48:30.330Z,44.23
2022-11-29T07:50:57.197Z,42.77
2022-11-29T07:53:24.394Z,42.77
2022-11-29T07:55:51.162Z,43.97
2022-11-29T07:58:18.664Z,43.00
2022-11-29T08:00:45.576Z,43.40
2022-11-29T08:03:12.430Z,41.17
2022-11-29T08:05:39.725Z,43.07
2022-11-29T08:08:06.903Z,42.40
2022-11-29T08:10:34.088Z,41.60
2022-11-29T08:13:00.592Z,40.00
2022-11-29T08:15:27.343Z,38.13
2022-11-29T08:17:53.857Z,38.77
2022-11-29T08:20:20.369Z,39.30
2022-11-29T08:22:54.398Z,37.60
2022-11-29T08:25:20.834Z,39.10
2022-11-29T08:27:47.139Z,36.93
2022-11-29T08:30:13.674Z,38.97
2022-11-29T08:32:40.123Z,39.83
2022-11-29T08:35:06.674Z,40.13
2022-11-29T08:37:33.040Z,38.13
2022-11-29T08:39:59.439Z,37.70
2022-11-29T08:42:25.930Z,37.20
2022-11-29T08:44:52.342Z,36.43
2022-11-29T08:47:37.064Z,36.10
2022-11-29T08:50:12.164Z,38.57
2022-11-29T08:53:02.124Z,35.63
2022-11-29T08:55:32.951Z,35.23
2022-11-29T08:58:10.140Z,36.30
2022-11-29T09:00:37.300Z,36.47
2022-11-29T09:03:23.793Z,35.00
2022-11-29T09:05:50.250Z,33.93
2022-11-29T09:08:16.782Z,34.53
2022-11-29T09:10:43.426Z,35.93
2022-11-29T09:13:11.097Z,34.67
2022-11-29T09:15:38.694Z,34.07
2022-11-29T09:18:06.860Z,31.90
2022-11-29T09:20:34.254Z,33.20
2022-11-29T09:23:01.312Z,31.67
2022-11-29T09:25:28.058Z,32.30
2022-11-29T09:27:57.391Z,31.60
2022-11-29T09:30:24.050Z,32.90
2022-11-29T09:32:50.548Z,31.20
2022-11-29T09:35:17.079Z,30.97
2022-11-29T09:37:43.683Z,30.30
2022-11-29T09:40:23.539Z,29.13
2022-11-29T09:43:02.819Z,29.53
2022-11-29T09:45:38.878Z,29.73
2022-11-29T09:48:08.330Z,27.93
2022-11-29T09:50:47.863Z,28.50
2022-11-29T09:53:50.293Z,28.50
2022-11-29T09:56:31.130Z,27.77
2022-11-29T09:59:01.201Z,27.63
2022-11-29T10:01:39.714Z,27.47
2022-11-29T10:04:14.437Z,26.10
2022-11-29T10:06:54.568Z,24.30
2022-11-29T10:09:38.218Z,25.00
2022-11-29T10:12:30.697Z,24.63
2022-11-29T10:15:17.748Z,25.33
2022-11-29T10:18:02.270Z,25.33
2022-11-29T10:20:41.413Z,25.17
2022-11-29T10:23:23.007Z,27.07
2022-11-29T10:25:55.172Z,24.50
2022-11-29T10:28:30.653Z,26.23
2022-11-29T10:31:08.456Z,25.47
2022-11-29T10:33:40.167Z,25.33
2022-11-29T10:36:25.610Z,26.67
2022-11-29T10:38:59.395Z,27.43
2022-11-29T10:41:26.857Z,26.73
2022-11-29T10:43:56.266Z,30.27
2022-11-29T10:46:30.101Z,29.57
2022-11-29T10:48:59.340Z,30.77
2022-11-29T10:51:25.913Z,32.33
2022-11-29T10:53:54.925Z,32.83
2022-11-29T10:56:29.494Z,32.03
2022-11-29T10:59:05.252Z,32.80
2022-11-29T11:01:36.045Z,33.70
2022-11-29T11:04:04.289Z,33.73
2022-11-29T11:06:46.754Z,35.37
2022-11-29T11:09:36.251Z,34.37
2022-11-29T11:12:20.032Z,33.80
2022-11-29T11:14:47.264Z,34.20
2022-11-29T11:17:36.441Z,33.87
2022-11-29T11:20:06.251Z,31.37
2022-11-29T11:22:34.030Z,32.17
2022-11-29T11:25:08.103Z,31.30
2022-11-29T11:27:41.595Z,32.57
2022-11-29T11:30:23.565Z,31.10
2022-11-29T11:33:17.256Z,30.60
2022-11-29T11:35:43.721Z,31.17
2022-11-29T11:38:17.622Z,31.07
2022-11-29T11:40:45.200Z,30.00
2022-11-29T11:43:29.840Z,30.97
2022-11-29T11:45:56.486Z,30.37
2022-11-29T11:48:23.738Z,27.27
2022-11-29T11:50:53.785Z,28.50
2022-11-29T11:53:36.585Z,27.23
2022-11-29T11:56:09.031Z,28.03
2022-11-29T11:58:44.318Z,28.10
2022-11-29T12:01:10.655Z,26.87
2022-11-29T12:03:52.709Z,26.47
2022-11-29T12:06:34.327Z,25.53
2022-11-29T12:09:36.390Z,28.27
2022-11-29T12:12:29.795Z,28.10
2022-11-29T12:15:07.032Z,26.63
2022-11-29T12:18:00.378Z,27.33
2022-11-29T12:20:28.285Z,27.00
2022-11-29T12:23:13.040Z,26.30
2022-11-29T12:26:05.833Z,26.10
2022-11-29T12:28:35.003Z,25.93
2022-11-29T12:31:23.970Z,26.07
2022-11-29T12:34:02.919Z,24.83
2022-11-29T12:36:50.005Z,25.17
2022-11-29T12:39:31.769Z,25.77
2022-11-29T12:42:14.740Z,25.10
2022-11-29T12:45:02.396Z,24.00
2022-11-29T12:47:58.884Z,26.40
2022-11-29T12:50:43.220Z,25.33
2022-11-29T12:53:43.858Z,23.50
2022-11-29T12:56:19.312Z,25.93
2022-11-29T12:59:04.532Z,25.90
2022-11-29T13:01:55.223Z,26.10
2022-11-29T13:04:40.918Z,26.20
2022-11-29T13:07:51.260Z,26.70
2022-11-29T13:10:36.375Z,27.03
2022-11-29T13:13:41.338Z,25.63
2022-11-29T13:16:48.681Z,27.93
2022-11-29T13:19:24.810Z,27.43
2022-11-29T13:22:09.979Z,28.30
2022-11-29T13:24:43.179Z,28.63
2022-11-29T13:27:26.463Z,28.27
2022-11-29T13:29:53.755Z,28.03
2022-11-29T13:32:35.754Z,28.03
2022-11-29T13:35:21.416Z,27.33
2022-11-29T13:37:55.521Z,27.67
2022-11-29T13:40:55.849Z,25.50
2022-11-29T13:43:38.911Z,26.30
2022-11-29T13:46:37.261Z,26.47
2022-11-29T13:49:03.846Z,26.33
2022-11-29T13:51:37.061Z,24.73
2022-11-29T13:54:06.387Z,25.40
2022-11-29T13:56:48.407Z,25.10
2022-11-29T13:59:49.286Z,25.97
2022-11-29T14:02:28.401Z,25.47
2022-11-29T14:04:54.979Z,25.47
2022-11-29T14:07:21.518Z,25.70
2022-11-29T14:09:49.845Z,25.20
2022-11-29T14:12:31.232Z,25.50
2022-11-29T14:15:01.605Z,24.50
2022-11-29T14:17:41.626Z,25.57
2022-11-29T14:20:23.309Z,24.50
2022-11-29T14:23:05.096Z,24.30
2022-11-29T14:28:22.463Z,23.60
2022-11-29T14:31:01.364Z,24.10
2022-11-29T14:33:46.405Z,23.47
2022-11-29T14:36:18.650Z,23.60
2022-11-29T14:38:54.620Z,24.97
2022-11-29T14:41:49.172Z,25.37
2022-11-29T14:44:32.979Z,23.87
2022-11-29T14:47:01.043Z,24.73
2022-11-29T14:49:29.003Z,25.60
2022-11-29T14:52:16.272Z,24.13
2022-11-29T14:54:55.431Z,25.63
2022-11-29T14:57:47.143Z,25.40
2022-11-29T15:00:16.496Z,24.87
2022-11-29T15:03:15.196Z,24.30
2022-11-29T15:05:48.710Z,24.57
2022-11-29T15:08:37.183Z,25.13
2022-11-29T15:11:40.449Z,24.87
2022-11-29T15:14:15.630Z,25.80
2022-11-29T15:17:00.465Z,25.17
2022-11-29T15:20:07.072Z,26.47
2022-11-29T15:22:43.430Z,27.17
2022-11-29T15:25:17.181Z,25.70
2022-11-29T15:27:58.386Z,25.57
2022-11-29T15:30:27.952Z,26.87
2022-11-29T15:32:54.415Z,28.20
2022-11-29T15:35:20.944Z,26.73
2022-11-29T15:37:49.695Z,27.40
2022-11-29T15:40:18.275Z,27.43
2022-11-29T15:42:55.431Z,27.30
2022-11-29T15:45:34.203Z,27.80
2022-11-29T15:48:15.791Z,27.43
2022-11-29T15:50:49.090Z,29.03
2022-11-29T15:53:25.788Z,30.63
2022-11-29T15:55:55.455Z,30.33
2022-11-29T15:58:22.797Z,29.47
2022-11-29T16:00:51.688Z,30.30
2022-11-29T16:03:29.811Z,29.73
2022-11-29T16:06:19.661Z,31.17
2022-11-29T16:08:46.748Z,28.93
2022-11-29T16:11:17.277Z,29.80
2022-11-29T16:14:13.298Z,30.30
2022-11-29T16:16:41.884Z,28.13
2022-11-29T16:19:28.250Z,28.40
2022-11-29T16:22:12.815Z,29.73
2022-11-29T16:24:56.058Z,28.60
2022-11-29T16:27:23.377Z,27.93
2022-11-29T16:29:51.478Z,27.90
2022-11-29T16:32:23.777Z,27.23
2022-11-29T16:34:50.360Z,27.77
2022-11-29T16:37:21.585Z,25.83
2022-11-29T16:39:50.748Z,26.20
2022-11-29T16:42:25.773Z,27.10
2022-11-29T16:45:01.730Z,27.47
2022-11-29T16:47:46.297Z,27.87
2022-11-29T16:50:19.384Z,27.47
2022-11-29T16:52:46.166Z,27.13
2022-11-29T16:55:12.762Z,27.27
2022-11-29T16:57:39.930Z,26.17
2022-11-29T17:00:45.076Z,27.40
2022-11-29T17:03:11.487Z,27.63
2022-11-29T17:05:43.157Z,27.53
2022-11-29T17:08:11.186Z,26.97
2022-11-29T17:10:37.619Z,28.17
2022-11-29T17:13:06.763Z,27.97
2022-11-29T17:15:33.184Z,28.03
2022-11-29T17:17:59.627Z,28.27
2022-11-29T17:20:26.047Z,27.30
2022-11-29T17:22:52.521Z,27.90
2022-11-29T17:25:18.814Z,27.67
2022-11-29T17:27:45.198Z,27.33
2022-11-29T17:30:12.253Z,26.77
2022-11-29T17:32:38.606Z,27.80
2022-11-29T17:35:05.253Z,26.17
2022-11-29T17:37:32.080Z,25.20
2022-11-29T17:39:58.454Z,25.53
2022-11-29T17:42:24.863Z,28.00
2022-11-29T17:44:51.294Z,27.83
2022-11-29T17:47:17.638Z,26.90
2022-11-29T17:49:44.428Z,26.07
2022-11-29T17:52:10.983Z,26.60
2022-11-29T17:54:37.386Z,27.07
2022-11-29T17:57:04.536Z,28.47
2022-11-29T17:59:30.823Z,27.30
2022-11-29T18:01:57.237Z,27.00
2022-11-29T18:04:23.668Z,29.50
2022-11-29T18:06:50.512Z,30.37
2022-11-29T18:09:18.491Z,28.10
2022-11-29T18:11:48.655Z,29.17
2022-11-29T18:14:22.736Z,28.20
2022-11-29T18:16:50.090Z,27.13
2022-11-29T18:19:19.101Z,26.83
2022-11-29T18:21:45.544Z,27.03
2022-11-29T18:24:12.212Z,26.47
2022-11-29T18:26:39.202Z,25.93
2022-11-29T18:29:06.724Z,25.40
2022-11-29T18:31:35.531Z,25.10
2022-11-29T18:34:06.873Z,25.03
2022-11-29T18:36:36.447Z,25.20
2022-11-29T18:39:05.718Z,27.17
2022-11-29T18:41:32.859Z,28.43
2022-11-29T18:44:02.299Z,27.37
2022-11-29T18:46:33.055Z,26.20
2022-11-29T18:49:00.965Z,25.83
2022-11-29T18:51:29.435Z,27.30
2022-11-29T18:53:56.580Z,27.03
2022-11-29T18:56:24.932Z,26.60
2022-11-29T18:58:58.179Z,27.40
2022-11-29T19:01:27.048Z,28.47
2022-11-29T19:03:55.430Z,26.10
2022-11-29T19:06:24.667Z,26.53
2022-11-29T19:08:52.665Z,27.77
2022-11-29T19:11:22.018Z,29.07
2022-11-29T19:13:53.638Z,28.03
2022-11-29T19:16:20.122Z,28.63
2022-11-29T19:18:50.978Z,26.97
2022-11-29T19:21:18.809Z,27.33
2022-11-29T19:23:51.533Z,26.13
2022-11-29T19:26:18.150Z,28.33
2022-11-29T19:28:45.975Z,27.07
2022-11-29T19:31:14.603Z,27.17
2022-11-29T19:33:44.656Z,27.97
2022-11-29T19:36:17.388Z,26.60
2022-11-29T19:38:48.780Z,27.70
2022-11-29T19:41:20.074Z,27.07
2022-11-29T19:43:47.425Z,27.10
2022-11-29T19:46:19.727Z,29.57
2022-11-29T19:48:46.558Z,27.70
2022-11-29T19:51:16.517Z,28.47
2022-11-29T19:53:43.099Z,28.00
2022-11-29T19:56:14.151Z,29.00
2022-11-29T19:58:40.681Z,29.60
2022-11-29T20:01:19.001Z,29.17
2022-11-29T20:03:45.426Z,31.00
2022-11-29T20:06:13.500Z,32.63
2022-11-29T20:08:41.697Z,29.97
2022-11-29T20:11:19.979Z,30.10
2022-11-29T20:13:53.147Z,29.87
2022-11-29T20:16:19.960Z,29.37
2022-11-29T20:18:51.067Z,28.57
2022-11-29T20:21:38.037Z,27.97
2022-11-29T20:24:06.946Z,27.37
2022-11-29T20:26:36.054Z,27.87
2022-11-29T20:29:03.259Z,27.80
2022-11-29T20:31:31.526Z,28.17
2022-11-29T20:33:58.271Z,28.23
2022-11-29T20:36:36.909Z,27.70
2022-11-29T20:39:36.850Z,26.30
2022-11-29T20:42:37.119Z,25.97
2022-11-29T20:45:06.468Z,25.67
2022-11-29T20:47:53.146Z,25.70
2022-11-29T20:50:23.466Z,25.17
2022-11-29T20:53:11.307Z,25.67
2022-11-29T20:55:46.304Z,25.40
2022-11-29T20:58:14.407Z,25.17
2022-11-29T21:00:40.767Z,26.03
2022-11-29T21:03:07.067Z,24.53
2022-11-29T21:05:33.551Z,27.27
2022-11-29T21:08:00.016Z,25.30
2022-11-29T21:10:26.486Z,25.03
2022-11-29T21:12:53.172Z,26.00
2022-11-29T21:15:19.907Z,26.80
2022-11-29T21:17:46.636Z,25.80
2022-11-29T21:20:26.605Z,25.47
2022-11-29T21:23:01.763Z,25.53
2022-11-29T21:25:43.229Z,25.10
2022-11-29T21:28:14.945Z,25.00
2022-11-29T21:30:42.716Z,26.30
2022-11-29T21:33:09.701Z,26.13
2022-11-29T21:35:39.600Z,24.33
2022-11-29T21:38:11.880Z,27.40
2022-11-29T21:40:38.222Z,24.90
2022-11-29T21:43:04.558Z,24.87
2022-11-29T21:45:30.971Z,38.23
2022-11-29T21:47:59.976Z,28.10
2022-11-29T21:50:26.372Z,26.73
2022-11-29T21:52:52.779Z,26.67
2022-11-29T21:55:19.105Z,25.20
2022-11-29T21:57:45.413Z,27.87
2022-11-29T22:00:12.329Z,26.33
2022-11-29T22:02:38.802Z,28.13
2022-11-29T22:05:07.126Z,27.07
2022-11-29T22:07:33.524Z,26.57
2022-11-29T22:10:09.940Z,27.30
2022-11-29T22:12:38.287Z,27.23
2022-11-29T22:15:05.203Z,27.43
2022-11-29T22:17:31.494Z,27.47
2022-11-29T22:19:57.852Z,29.70
2022-11-29T22:22:27.150Z,28.87
2022-11-29T22:24:54.472Z,29.07
2022-11-29T22:27:20.993Z,28.73
2022-11-29T22:29:47.374Z,28.57
2022-11-29T22:32:13.758Z,28.13
2022-11-29T22:34:40.098Z,28.57
2022-11-29T22:37:06.380Z,29.67
2022-11-29T22:39:32.664Z,29.13
2022-11-29T22:41:59.171Z,29.00
2022-11-29T22:44:25.687Z,26.63
2022-11-29T22:46:52.082Z,28.50
2022-11-29T22:49:18.830Z,28.90
2022-11-29T22:51:45.168Z,28.03
2022-11-29T22:54:15.180Z,27.17
2022-11-29T22:56:43.043Z,26.10
2022-11-29T22:59:09.343Z,26.07
2022-11-29T23:01:38.079Z,26.80
2022-11-29T23:04:07.288Z,26.03
2022-11-29T23:06:37.865Z,28.53
2022-11-29T23:09:11.931Z,27.20
2022-11-29T23:11:38.734Z,27.87
2022-11-29T23:14:05.066Z,29.27
2022-11-29T23:16:32.851Z,31.27
2022-11-29T23:19:00.711Z,30.53
2022-11-29T23:21:39.571Z,30.80
2022-11-29T23:24:06.307Z,32.33
2022-11-29T23:26:39.616Z,33.60
2022-11-29T23:29:11.526Z,32.23
2022-11-29T23:31:38.515Z,33.10
2022-11-29T23:34:05.401Z,32.83
2022-11-29T23:36:32.190Z,34.03
2022-11-29T23:38:58.505Z,33.07
2022-11-29T23:41:26.353Z,34.43
2022-11-29T23:43:52.745Z,35.27
2022-11-29T23:46:21.478Z,36.17
2022-11-29T23:48:48.169Z,36.03
2022-11-29T23:51:15.563Z,35.90
2022-11-29T23:53:42.267Z,36.43
2022-11-29T23:56:12.596Z,34.40
2022-11-29T23:58:39.321Z,34.70
